sensor_id;sensor_type;location;lat;lon;timestamp;P1;durP1;ratioP1;P2;durP2;ratioP2
15889;SDS011;8043;49.388;12.128;2022-12-26T00:01:23;6.07;;;3.20;;
15889;SDS011;8043;49.388;12.128;2022-12-26T00:06:27;7.03;;;3.73;;
15889;SDS011;8043;49.388;12.128;2022-12-26T00:11:30;3.87;;;2.90;;
15889;SDS011;8043;49.388;12.128;2022-12-26T00:16:32;4.53;;;3.03;;
15889;SDS011;8043;49.388;12.128;2022-12-26T00:21:35;4.57;;;2.97;;
15889;SDS011;8043;49.388;12.128;2022-12-26T00:26:37;5.53;;;3.27;;
15889;SDS011;8043;49.388;12.128;2022-12-26T00:31:39;3.87;;;3.00;;
15889;SDS011;8043;49.388;12.128;2022-12-26T00:36:41;5.13;;;2.80;;
15889;SDS011;8043;49.388;12.128;2022-12-26T00:41:43;9.33;;;2.43;;
15889;SDS011;8043;49.388;12.128;2022-12-26T00:46:46;8.57;;;3.40;;
15889;SDS011;8043;49.388;12.128;2022-12-26T00:51:48;4.03;;;2.93;;
15889;SDS011;8043;49.388;12.128;2022-12-26T00:56:50;3.90;;;2.50;;
15889;SDS011;8043;49.388;12.128;2022-12-26T01:01:52;4.80;;;2.90;;
15889;SDS011;8043;49.388;12.128;2022-12-26T01:06:55;5.93;;;3.40;;
15889;SDS011;8043;49.388;12.128;2022-12-26T01:11:57;6.63;;;3.43;;
15889;SDS011;8043;49.388;12.128;2022-12-26T01:16:59;4.47;;;3.13;;
15889;SDS011;8043;49.388;12.128;2022-12-26T01:22:01;3.57;;;2.50;;
15889;SDS011;8043;49.388;12.128;2022-12-26T01:27:03;4.17;;;2.87;;
15889;SDS011;8043;49.388;12.128;2022-12-26T01:32:06;8.40;;;3.40;;
15889;SDS011;8043;49.388;12.128;2022-12-26T01:37:09;7.30;;;2.77;;
15889;SDS011;8043;49.388;12.128;2022-12-26T01:42:13;6.33;;;3.07;;
15889;SDS011;8043;49.388;12.128;2022-12-26T01:47:20;7.53;;;3.20;;
15889;SDS011;8043;49.388;12.128;2022-12-26T01:52:39;4.50;;;2.40;;
15889;SDS011;8043;49.388;12.128;2022-12-26T01:57:43;4.60;;;2.77;;
15889;SDS011;8043;49.388;12.128;2022-12-26T02:02:46;6.17;;;3.10;;
15889;SDS011;8043;49.388;12.128;2022-12-26T02:08:11;7.57;;;3.10;;
15889;SDS011;8043;49.388;12.128;2022-12-26T02:13:14;6.10;;;2.73;;
15889;SDS011;8043;49.388;12.128;2022-12-26T02:18:16;6.60;;;3.70;;
15889;SDS011;8043;49.388;12.128;2022-12-26T02:23:43;4.50;;;2.50;;
15889;SDS011;8043;49.388;12.128;2022-12-26T02:29:03;2.57;;;2.30;;
15889;SDS011;8043;49.388;12.128;2022-12-26T02:34:22;3.87;;;2.73;;
15889;SDS011;8043;49.388;12.128;2022-12-26T02:44:55;3.37;;;2.30;;
15889;SDS011;8043;49.388;12.128;2022-12-26T02:51:20;4.50;;;2.93;;
15889;SDS011;8043;49.388;12.128;2022-12-26T02:56:19;4.83;;;3.07;;
15889;SDS011;8043;49.388;12.128;2022-12-26T03:01:43;4.57;;;2.77;;
15889;SDS011;8043;49.388;12.128;2022-12-26T03:07:04;4.90;;;2.17;;
15889;SDS011;8043;49.388;12.128;2022-12-26T03:12:35;4.50;;;2.67;;
15889;SDS011;8043;49.388;12.128;2022-12-26T03:18:00;4.33;;;2.20;;
15889;SDS011;8043;49.388;12.128;2022-12-26T03:23:08;4.63;;;2.60;;
15889;SDS011;8043;49.388;12.128;2022-12-26T03:28:11;4.43;;;2.47;;
15889;SDS011;8043;49.388;12.128;2022-12-26T03:33:17;5.47;;;3.30;;
15889;SDS011;8043;49.388;12.128;2022-12-26T03:38:44;3.80;;;2.80;;
15889;SDS011;8043;49.388;12.128;2022-12-26T03:44:05;5.77;;;2.73;;
15889;SDS011;8043;49.388;12.128;2022-12-26T03:49:26;4.27;;;2.50;;
15889;SDS011;8043;49.388;12.128;2022-12-26T03:54:50;4.33;;;2.63;;
15889;SDS011;8043;49.388;12.128;2022-12-26T04:00:15;3.67;;;2.03;;
15889;SDS011;8043;49.388;12.128;2022-12-26T04:05:36;5.10;;;2.70;;
15889;SDS011;8043;49.388;12.128;2022-12-26T04:10:58;5.73;;;2.80;;
15889;SDS011;8043;49.388;12.128;2022-12-26T04:16:33;4.47;;;2.30;;
15889;SDS011;8043;49.388;12.128;2022-12-26T04:27:35;6.23;;;2.93;;
15889;SDS011;8043;49.388;12.128;2022-12-26T04:32:56;4.00;;;2.77;;
15889;SDS011;8043;49.388;12.128;2022-12-26T04:38:19;4.80;;;3.17;;
15889;SDS011;8043;49.388;12.128;2022-12-26T04:43:41;4.90;;;2.80;;
15889;SDS011;8043;49.388;12.128;2022-12-26T04:49:03;6.93;;;2.83;;
15889;SDS011;8043;49.388;12.128;2022-12-26T04:54:25;7.23;;;2.57;;
15889;SDS011;8043;49.388;12.128;2022-12-26T04:59:27;4.13;;;2.67;;
15889;SDS011;8043;49.388;12.128;2022-12-26T05:04:29;5.37;;;2.60;;
15889;SDS011;8043;49.388;12.128;2022-12-26T05:09:54;4.17;;;2.20;;
15889;SDS011;8043;49.388;12.128;2022-12-26T05:14:53;6.13;;;2.87;;
15889;SDS011;8043;49.388;12.128;2022-12-26T05:19:56;7.83;;;3.20;;
15889;SDS011;8043;49.388;12.128;2022-12-26T05:25:17;6.20;;;4.17;;
15889;SDS011;8043;49.388;12.128;2022-12-26T05:30:42;4.83;;;3.00;;
15889;SDS011;8043;49.388;12.128;2022-12-26T05:35:44;5.20;;;2.77;;
15889;SDS011;8043;49.388;12.128;2022-12-26T05:40:46;7.70;;;3.00;;
15889;SDS011;8043;49.388;12.128;2022-12-26T05:45:49;4.33;;;2.53;;
15889;SDS011;8043;49.388;12.128;2022-12-26T05:50:51;4.20;;;2.57;;
15889;SDS011;8043;49.388;12.128;2022-12-26T05:55:53;4.63;;;2.63;;
15889;SDS011;8043;49.388;12.128;2022-12-26T06:01:12;5.47;;;2.83;;
15889;SDS011;8043;49.388;12.128;2022-12-26T06:06:18;5.57;;;2.90;;
15889;SDS011;8043;49.388;12.128;2022-12-26T06:11:21;5.93;;;3.13;;
15889;SDS011;8043;49.388;12.128;2022-12-26T06:16:25;7.50;;;3.23;;
15889;SDS011;8043;49.388;12.128;2022-12-26T06:21:27;5.77;;;2.97;;
15889;SDS011;8043;49.388;12.128;2022-12-26T06:26:29;6.30;;;2.90;;
15889;SDS011;8043;49.388;12.128;2022-12-26T06:31:32;7.03;;;3.33;;
15889;SDS011;8043;49.388;12.128;2022-12-26T06:36:34;7.17;;;3.90;;
15889;SDS011;8043;49.388;12.128;2022-12-26T06:41:37;6.30;;;3.50;;
15889;SDS011;8043;49.388;12.128;2022-12-26T06:46:39;7.27;;;4.10;;
15889;SDS011;8043;49.388;12.128;2022-12-26T06:51:41;8.73;;;4.40;;
15889;SDS011;8043;49.388;12.128;2022-12-26T06:56:45;9.27;;;4.20;;
15889;SDS011;8043;49.388;12.128;2022-12-26T07:01:47;8.33;;;4.17;;
15889;SDS011;8043;49.388;12.128;2022-12-26T07:06:50;6.50;;;3.77;;
15889;SDS011;8043;49.388;12.128;2022-12-26T07:11:52;5.40;;;3.50;;
15889;SDS011;8043;49.388;12.128;2022-12-26T07:16:55;6.97;;;4.23;;
15889;SDS011;8043;49.388;12.128;2022-12-26T07:21:58;6.47;;;3.93;;
15889;SDS011;8043;49.388;12.128;2022-12-26T07:27:00;9.27;;;4.83;;
15889;SDS011;8043;49.388;12.128;2022-12-26T07:32:02;12.17;;;4.97;;
15889;SDS011;8043;49.388;12.128;2022-12-26T07:37:04;5.77;;;3.10;;
15889;SDS011;8043;49.388;12.128;2022-12-26T07:42:06;7.73;;;3.67;;
15889;SDS011;8043;49.388;12.128;2022-12-26T07:47:09;4.40;;;2.73;;
15889;SDS011;8043;49.388;12.128;2022-12-26T07:52:11;5.20;;;3.17;;
15889;SDS011;8043;49.388;12.128;2022-12-26T07:57:13;7.20;;;4.40;;
15889;SDS011;8043;49.388;12.128;2022-12-26T08:02:16;7.13;;;4.00;;
15889;SDS011;8043;49.388;12.128;2022-12-26T08:07:18;3.97;;;3.10;;
15889;SDS011;8043;49.388;12.128;2022-12-26T08:12:20;4.90;;;2.90;;
15889;SDS011;8043;49.388;12.128;2022-12-26T08:17:24;7.33;;;4.43;;
15889;SDS011;8043;49.388;12.128;2022-12-26T08:22:26;6.73;;;3.80;;
15889;SDS011;8043;49.388;12.128;2022-12-26T08:27:28;10.43;;;5.33;;
15889;SDS011;8043;49.388;12.128;2022-12-26T08:32:31;11.13;;;5.50;;
15889;SDS011;8043;49.388;12.128;2022-12-26T08:37:33;7.53;;;3.97;;
15889;SDS011;8043;49.388;12.128;2022-12-26T08:42:35;8.07;;;3.93;;
15889;SDS011;8043;49.388;12.128;2022-12-26T08:47:37;8.10;;;3.17;;
15889;SDS011;8043;49.388;12.128;2022-12-26T08:52:39;5.70;;;3.33;;
15889;SDS011;8043;49.388;12.128;2022-12-26T08:57:42;5.17;;;3.00;;
15889;SDS011;8043;49.388;12.128;2022-12-26T09:02:44;7.50;;;3.70;;
15889;SDS011;8043;49.388;12.128;2022-12-26T09:07:46;5.43;;;3.07;;
15889;SDS011;8043;49.388;12.128;2022-12-26T09:12:48;13.33;;;6.50;;
15889;SDS011;8043;49.388;12.128;2022-12-26T09:17:50;8.70;;;4.30;;
15889;SDS011;8043;49.388;12.128;2022-12-26T09:22:53;7.93;;;4.10;;
15889;SDS011;8043;49.388;12.128;2022-12-26T09:27:55;5.73;;;3.83;;
15889;SDS011;8043;49.388;12.128;2022-12-26T09:32:57;8.97;;;4.90;;
15889;SDS011;8043;49.388;12.128;2022-12-26T09:38:00;7.33;;;4.07;;
15889;SDS011;8043;49.388;12.128;2022-12-26T09:48:17;5.00;;;3.43;;
15889;SDS011;8043;49.388;12.128;2022-12-26T09:53:28;8.23;;;4.17;;
15889;SDS011;8043;49.388;12.128;2022-12-26T09:58:42;7.90;;;4.17;;
15889;SDS011;8043;49.388;12.128;2022-12-26T10:03:54;7.53;;;4.90;;
15889;SDS011;8043;49.388;12.128;2022-12-26T10:14:17;8.40;;;4.80;;
15889;SDS011;8043;49.388;12.128;2022-12-26T10:19:26;13.97;;;4.20;;
15889;SDS011;8043;49.388;12.128;2022-12-26T10:24:29;10.40;;;5.00;;
15889;SDS011;8043;49.388;12.128;2022-12-26T10:29:34;8.30;;;4.37;;
15889;SDS011;8043;49.388;12.128;2022-12-26T10:34:41;12.07;;;5.40;;
15889;SDS011;8043;49.388;12.128;2022-12-26T10:50:23;12.73;;;4.67;;
15889;SDS011;8043;49.388;12.128;2022-12-26T10:55:31;11.33;;;6.10;;
15889;SDS011;8043;49.388;12.128;2022-12-26T11:00:34;13.47;;;7.63;;
15889;SDS011;8043;49.388;12.128;2022-12-26T11:05:37;9.67;;;5.63;;
15889;SDS011;8043;49.388;12.128;2022-12-26T11:10:43;6.80;;;4.00;;
15889;SDS011;8043;49.388;12.128;2022-12-26T11:15:50;6.93;;;3.93;;
15889;SDS011;8043;49.388;12.128;2022-12-26T11:20:53;8.47;;;3.97;;
15889;SDS011;8043;49.388;12.128;2022-12-26T11:25:56;8.20;;;4.33;;
15889;SDS011;8043;49.388;12.128;2022-12-26T11:31:00;5.20;;;3.27;;
15889;SDS011;8043;49.388;12.128;2022-12-26T11:36:10;8.17;;;4.10;;
15889;SDS011;8043;49.388;12.128;2022-12-26T11:46:37;8.03;;;4.27;;
15889;SDS011;8043;49.388;12.128;2022-12-26T11:51:44;9.00;;;5.70;;
15889;SDS011;8043;49.388;12.128;2022-12-26T11:56:48;10.97;;;4.90;;
15889;SDS011;8043;49.388;12.128;2022-12-26T12:02:38;15.60;;;7.33;;
15889;SDS011;8043;49.388;12.128;2022-12-26T12:07:19;17.53;;;9.57;;
15889;SDS011;8043;49.388;12.128;2022-12-26T12:23:35;10.90;;;5.37;;
15889;SDS011;8043;49.388;12.128;2022-12-26T12:34:21;5.90;;;3.53;;
15889;SDS011;8043;49.388;12.128;2022-12-26T12:39:33;8.93;;;4.70;;
15889;SDS011;8043;49.388;12.128;2022-12-26T12:49:55;9.70;;;4.67;;
15889;SDS011;8043;49.388;12.128;2022-12-26T13:06:00;9.63;;;3.43;;
15889;SDS011;8043;49.388;12.128;2022-12-26T13:11:48;5.80;;;2.93;;
15889;SDS011;8043;49.388;12.128;2022-12-26T13:16:17;3.70;;;2.40;;
15889;SDS011;8043;49.388;12.128;2022-12-26T13:21:23;2.90;;;2.30;;
15889;SDS011;8043;49.388;12.128;2022-12-26T13:26:36;4.07;;;2.00;;
15889;SDS011;8043;49.388;12.128;2022-12-26T13:31:41;7.30;;;2.80;;
15889;SDS011;8043;49.388;12.128;2022-12-26T13:41:57;5.93;;;2.70;;
15889;SDS011;8043;49.388;12.128;2022-12-26T13:47:34;2.97;;;1.87;;
15889;SDS011;8043;49.388;12.128;2022-12-26T13:52:38;3.67;;;2.00;;
15889;SDS011;8043;49.388;12.128;2022-12-26T13:57:41;6.77;;;3.20;;
15889;SDS011;8043;49.388;12.128;2022-12-26T14:18:53;1.90;;;1.23;;
15889;SDS011;8043;49.388;12.128;2022-12-26T14:40:04;3.33;;;1.80;;
15889;SDS011;8043;49.388;12.128;2022-12-26T14:45:37;1.90;;;1.53;;
15889;SDS011;8043;49.388;12.128;2022-12-26T14:55:47;8.83;;;3.70;;
15889;SDS011;8043;49.388;12.128;2022-12-26T15:00:51;2.87;;;1.60;;
15889;SDS011;8043;49.388;12.128;2022-12-26T15:05:57;3.50;;;1.70;;
15889;SDS011;8043;49.388;12.128;2022-12-26T15:21:58;1.93;;;1.50;;
15889;SDS011;8043;49.388;12.128;2022-12-26T15:27:16;2.80;;;1.83;;
15889;SDS011;8043;49.388;12.128;2022-12-26T15:32:34;2.73;;;1.03;;
15889;SDS011;8043;49.388;12.128;2022-12-26T15:37:58;4.37;;;2.07;;
15889;SDS011;8043;49.388;12.128;2022-12-26T15:43:29;2.87;;;2.00;;
15889;SDS011;8043;49.388;12.128;2022-12-26T15:48:43;4.00;;;2.30;;
15889;SDS011;8043;49.388;12.128;2022-12-26T15:53:54;5.00;;;1.90;;
15889;SDS011;8043;49.388;12.128;2022-12-26T15:59:03;5.83;;;2.40;;
15889;SDS011;8043;49.388;12.128;2022-12-26T16:04:19;4.33;;;2.57;;
15889;SDS011;8043;49.388;12.128;2022-12-26T16:09:34;4.87;;;3.10;;
15889;SDS011;8043;49.388;12.128;2022-12-26T16:14:38;10.00;;;3.70;;
15889;SDS011;8043;49.388;12.128;2022-12-26T16:19:41;9.77;;;4.20;;
15889;SDS011;8043;49.388;12.128;2022-12-26T16:24:46;7.20;;;3.50;;
15889;SDS011;8043;49.388;12.128;2022-12-26T16:29:55;9.77;;;3.47;;
15889;SDS011;8043;49.388;12.128;2022-12-26T16:34:59;7.23;;;3.23;;
15889;SDS011;8043;49.388;12.128;2022-12-26T16:40:15;5.17;;;3.30;;
15889;SDS011;8043;49.388;12.128;2022-12-26T16:45:25;5.27;;;2.43;;
15889;SDS011;8043;49.388;12.128;2022-12-26T16:50:28;5.33;;;3.10;;
15889;SDS011;8043;49.388;12.128;2022-12-26T16:55:44;6.47;;;3.33;;
15889;SDS011;8043;49.388;12.128;2022-12-26T17:01:11;3.47;;;2.57;;
15889;SDS011;8043;49.388;12.128;2022-12-26T17:06:12;5.00;;;3.00;;
15889;SDS011;8043;49.388;12.128;2022-12-26T17:11:17;6.27;;;2.83;;
15889;SDS011;8043;49.388;12.128;2022-12-26T17:16:31;4.70;;;2.60;;
15889;SDS011;8043;49.388;12.128;2022-12-26T17:21:34;6.47;;;2.93;;
15889;SDS011;8043;49.388;12.128;2022-12-26T17:26:36;7.17;;;3.43;;
15889;SDS011;8043;49.388;12.128;2022-12-26T17:31:40;8.70;;;3.60;;
15889;SDS011;8043;49.388;12.128;2022-12-26T17:36:44;8.03;;;3.80;;
15889;SDS011;8043;49.388;12.128;2022-12-26T17:41:54;3.77;;;2.40;;
15889;SDS011;8043;49.388;12.128;2022-12-26T17:46:59;5.27;;;2.90;;
15889;SDS011;8043;49.388;12.128;2022-12-26T17:52:02;5.03;;;3.50;;
15889;SDS011;8043;49.388;12.128;2022-12-26T17:57:04;3.97;;;2.90;;
15889;SDS011;8043;49.388;12.128;2022-12-26T18:02:07;4.43;;;3.00;;
15889;SDS011;8043;49.388;12.128;2022-12-26T18:07:17;5.10;;;3.10;;
15889;SDS011;8043;49.388;12.128;2022-12-26T18:12:44;7.30;;;3.57;;
15889;SDS011;8043;49.388;12.128;2022-12-26T18:17:47;5.90;;;3.90;;
15889;SDS011;8043;49.388;12.128;2022-12-26T18:22:50;5.63;;;3.13;;
15889;SDS011;8043;49.388;12.128;2022-12-26T18:27:52;6.50;;;3.73;;
15889;SDS011;8043;49.388;12.128;2022-12-26T18:32:54;7.53;;;4.00;;
15889;SDS011;8043;49.388;12.128;2022-12-26T18:37:57;11.33;;;6.40;;
15889;SDS011;8043;49.388;12.128;2022-12-26T18:42:59;6.33;;;4.33;;
15889;SDS011;8043;49.388;12.128;2022-12-26T18:48:02;8.03;;;4.73;;
15889;SDS011;8043;49.388;12.128;2022-12-26T18:53:05;9.10;;;3.90;;
15889;SDS011;8043;49.388;12.128;2022-12-26T18:58:08;6.53;;;3.77;;
15889;SDS011;8043;49.388;12.128;2022-12-26T19:03:11;6.17;;;3.40;;
15889;SDS011;8043;49.388;12.128;2022-12-26T19:08:13;5.67;;;3.10;;
15889;SDS011;8043;49.388;12.128;2022-12-26T19:13:15;7.47;;;3.87;;
15889;SDS011;8043;49.388;12.128;2022-12-26T19:18:17;10.27;;;5.13;;
15889;SDS011;8043;49.388;12.128;2022-12-26T19:23:20;12.23;;;4.73;;
15889;SDS011;8043;49.388;12.128;2022-12-26T19:28:22;11.73;;;5.87;;
15889;SDS011;8043;49.388;12.128;2022-12-26T19:33:24;7.27;;;3.30;;
15889;SDS011;8043;49.388;12.128;2022-12-26T19:38:27;8.47;;;3.87;;
15889;SDS011;8043;49.388;12.128;2022-12-26T19:43:29;5.03;;;2.73;;
15889;SDS011;8043;49.388;12.128;2022-12-26T19:48:32;3.13;;;2.37;;
15889;SDS011;8043;49.388;12.128;2022-12-26T19:53:35;6.87;;;3.47;;
15889;SDS011;8043;49.388;12.128;2022-12-26T19:58:38;6.43;;;3.37;;
15889;SDS011;8043;49.388;12.128;2022-12-26T20:03:40;9.43;;;5.17;;
15889;SDS011;8043;49.388;12.128;2022-12-26T20:08:42;6.70;;;4.00;;
15889;SDS011;8043;49.388;12.128;2022-12-26T20:13:46;3.40;;;2.23;;
15889;SDS011;8043;49.388;12.128;2022-12-26T20:18:49;5.60;;;2.20;;
15889;SDS011;8043;49.388;12.128;2022-12-26T20:23:51;3.13;;;1.80;;
15889;SDS011;8043;49.388;12.128;2022-12-26T20:28:57;1.13;;;0.90;;
15889;SDS011;8043;49.388;12.128;2022-12-26T20:34:03;1.57;;;1.10;;
15889;SDS011;8043;49.388;12.128;2022-12-26T20:39:07;0.67;;;0.57;;
15889;SDS011;8043;49.388;12.128;2022-12-26T20:44:14;0.40;;;0.40;;
15889;SDS011;8043;49.388;12.128;2022-12-26T20:49:17;0.83;;;0.37;;
15889;SDS011;8043;49.388;12.128;2022-12-26T20:54:19;1.57;;;0.83;;
15889;SDS011;8043;49.388;12.128;2022-12-26T20:59:22;1.27;;;0.87;;
15889;SDS011;8043;49.388;12.128;2022-12-26T21:04:24;0.30;;;0.30;;
15889;SDS011;8043;49.388;12.128;2022-12-26T21:09:26;0.57;;;0.43;;
15889;SDS011;8043;49.388;12.128;2022-12-26T21:14:29;1.40;;;0.73;;
15889;SDS011;8043;49.388;12.128;2022-12-26T21:19:31;1.40;;;0.80;;
15889;SDS011;8043;49.388;12.128;2022-12-26T21:24:33;0.90;;;0.60;;
15889;SDS011;8043;49.388;12.128;2022-12-26T21:29:36;1.03;;;0.50;;
15889;SDS011;8043;49.388;12.128;2022-12-26T21:34:38;0.80;;;0.63;;
15889;SDS011;8043;49.388;12.128;2022-12-26T21:39:40;0.57;;;0.53;;
15889;SDS011;8043;49.388;12.128;2022-12-26T21:44:43;1.03;;;0.73;;
15889;SDS011;8043;49.388;12.128;2022-12-26T21:49:45;0.30;;;0.30;;
15889;SDS011;8043;49.388;12.128;2022-12-26T21:54:50;1.67;;;0.60;;
15889;SDS011;8043;49.388;12.128;2022-12-26T22:00:10;1.40;;;1.10;;
15889;SDS011;8043;49.388;12.128;2022-12-26T22:05:13;2.07;;;1.87;;
15889;SDS011;8043;49.388;12.128;2022-12-26T22:10:16;0.70;;;0.70;;
15889;SDS011;8043;49.388;12.128;2022-12-26T22:15:43;0.50;;;0.50;;
15889;SDS011;8043;49.388;12.128;2022-12-26T22:21:06;1.37;;;0.40;;
15889;SDS011;8043;49.388;12.128;2022-12-26T22:26:20;0.97;;;0.67;;
15889;SDS011;8043;49.388;12.128;2022-12-26T22:31:28;0.20;;;0.20;;
15889;SDS011;8043;49.388;12.128;2022-12-26T22:36:32;0.20;;;0.20;;
15889;SDS011;8043;49.388;12.128;2022-12-26T22:41:35;0.40;;;0.30;;
15889;SDS011;8043;49.388;12.128;2022-12-26T22:46:37;0.90;;;0.40;;
15889;SDS011;8043;49.388;12.128;2022-12-26T22:51:39;0.43;;;0.20;;
15889;SDS011;8043;49.388;12.128;2022-12-26T22:56:42;0.50;;;0.50;;
15889;SDS011;8043;49.388;12.128;2022-12-26T23:01:44;1.77;;;0.50;;
15889;SDS011;8043;49.388;12.128;2022-12-26T23:06:47;1.67;;;1.30;;
15889;SDS011;8043;49.388;12.128;2022-12-26T23:11:52;1.30;;;0.60;;
15889;SDS011;8043;49.388;12.128;2022-12-26T23:17:13;0.20;;;0.20;;
15889;SDS011;8043;49.388;12.128;2022-12-26T23:22:18;0.70;;;0.43;;
15889;SDS011;8043;49.388;12.128;2022-12-26T23:27:20;0.23;;;0.23;;
15889;SDS011;8043;49.388;12.128;2022-12-26T23:32:41;0.90;;;0.50;;
15889;SDS011;8043;49.388;12.128;2022-12-26T23:37:44;0.23;;;0.23;;
15889;SDS011;8043;49.388;12.128;2022-12-26T23:42:46;0.60;;;0.60;;
15889;SDS011;8043;49.388;12.128;2022-12-26T23:47:49;0.40;;;0.40;;
15889;SDS011;8043;49.388;12.128;2022-12-26T23:52:51;2.03;;;0.70;;
15889;SDS011;8043;49.388;12.128;2022-12-26T23:57:56;0.73;;;0.60;;
